createdAt,value
2019-03-31T00:01:08.491Z,13.65
2019-03-31T00:03:36.744Z,12.75
2019-03-31T00:06:08.457Z,10.80
2019-03-31T00:08:40.298Z,13.95
2019-03-31T00:11:12.095Z,12.23
2019-03-31T00:13:43.946Z,10.93
2019-03-31T00:16:15.834Z,13.08
2019-03-31T00:18:48.683Z,8.88
2019-03-31T00:21:20.502Z,7.75
2019-03-31T00:23:52.358Z,6.80
2019-03-31T00:26:24.208Z,12.90
2019-03-31T00:28:56.038Z,12.53
2019-03-31T00:31:27.808Z,14.18
2019-03-31T00:33:59.598Z,15.08
2019-03-31T00:36:32.639Z,11.33
2019-03-31T00:39:06.700Z,15.98
2019-03-31T00:41:38.448Z,13.65
2019-03-31T00:44:10.272Z,12.47
2019-03-31T00:46:42.213Z,13.80
2019-03-31T00:49:14.509Z,13.03
2019-03-31T00:51:46.264Z,13.70
2019-03-31T00:54:17.989Z,14.07
2019-03-31T00:56:50.779Z,13.22
2019-03-31T00:59:22.537Z,12.30
2019-03-31T01:01:56.795Z,10.58
2019-03-31T01:04:30.922Z,13.13
2019-03-31T01:07:03.067Z,13.13
2019-03-31T01:09:35.396Z,11.93
2019-03-31T01:12:07.697Z,12.70
2019-03-31T01:14:40.168Z,9.40
2019-03-31T01:17:12.673Z,10.98
2019-03-31T01:19:45.080Z,4.37
2019-03-31T01:22:17.051Z,10.40
2019-03-31T01:24:48.812Z,9.98
2019-03-31T01:27:22.100Z,7.75
2019-03-31T01:29:54.313Z,8.08
2019-03-31T01:32:26.467Z,4.87
2019-03-31T01:34:58.504Z,9.08
2019-03-31T01:37:31.399Z,8.93
2019-03-31T01:40:03.312Z,8.78
2019-03-31T01:42:36.047Z,5.95
2019-03-31T01:45:08.184Z,9.43
2019-03-31T01:47:40.030Z,9.53
2019-03-31T01:50:14.218Z,9.03
2019-03-31T01:52:46.344Z,8.83
2019-03-31T01:55:18.975Z,6.87
2019-03-31T01:57:50.806Z,4.05
2019-03-31T02:00:36.901Z,6.22
2019-03-31T02:03:08.823Z,5.62
2019-03-31T02:05:41.232Z,8.13
2019-03-31T02:08:12.953Z,5.97
2019-03-31T02:10:44.721Z,6.17
2019-03-31T02:13:16.586Z,4.17
2019-03-31T02:15:48.956Z,6.20
2019-03-31T02:18:20.700Z,3.30
2019-03-31T02:20:52.479Z,4.08
2019-03-31T02:23:24.289Z,4.03
2019-03-31T02:25:56.090Z,2.15
2019-03-31T02:28:28.064Z,3.90
2019-03-31T02:30:59.823Z,4.72
2019-03-31T02:33:32.501Z,3.50
2019-03-31T02:36:04.750Z,3.42
2019-03-31T02:38:36.561Z,3.00
2019-03-31T02:41:08.809Z,3.83
2019-03-31T02:43:40.593Z,4.15
2019-03-31T02:46:12.429Z,3.08
2019-03-31T02:48:44.395Z,1.98
2019-03-31T02:51:16.227Z,1.40
2019-03-31T02:53:48.173Z,1.22
2019-03-31T02:56:20.315Z,1.10
2019-03-31T02:58:52.469Z,0.98
2019-03-31T03:01:25.399Z,0.82
2019-03-31T03:03:58.619Z,1.87
2019-03-31T03:06:32.551Z,1.70
2019-03-31T03:09:07.551Z,5.65
2019-03-31T03:11:42.105Z,1.72
2019-03-31T03:14:15.194Z,1.00
2019-03-31T03:16:47.040Z,1.00
2019-03-31T03:19:18.814Z,1.07
2019-03-31T03:21:50.988Z,1.32
2019-03-31T03:24:22.809Z,1.17
2019-03-31T03:26:54.970Z,0.70
2019-03-31T03:29:26.718Z,0.88
2019-03-31T03:31:58.989Z,1.37
2019-03-31T03:34:31.772Z,1.70
2019-03-31T03:37:03.565Z,3.12
2019-03-31T03:39:35.270Z,1.45
2019-03-31T03:42:07.169Z,1.30
2019-03-31T03:44:38.978Z,1.20
2019-03-31T03:47:10.748Z,1.87
2019-03-31T03:49:42.529Z,0.57
2019-03-31T03:52:14.163Z,1.62
2019-03-31T03:54:50.839Z,0.40
2019-03-31T03:57:22.998Z,1.82
2019-03-31T03:59:54.817Z,1.30
2019-03-31T04:02:26.685Z,1.50
2019-03-31T04:04:58.506Z,1.67
2019-03-31T04:07:30.280Z,1.30
2019-03-31T04:10:02.057Z,1.10
2019-03-31T04:12:34.360Z,1.40
2019-03-31T04:15:06.444Z,0.90
2019-03-31T04:17:38.317Z,1.80
2019-03-31T04:20:10.192Z,0.95
2019-03-31T04:22:42.014Z,0.93
2019-03-31T04:25:13.838Z,1.57
2019-03-31T04:27:45.716Z,1.80
2019-03-31T04:30:17.582Z,2.05
2019-03-31T04:32:50.001Z,1.42
2019-03-31T04:35:21.811Z,1.10
2019-03-31T04:37:53.592Z,1.72
2019-03-31T04:40:25.725Z,1.60
2019-03-31T04:43:01.012Z,1.72
2019-03-31T04:45:32.752Z,1.00
2019-03-31T04:48:04.796Z,0.90
2019-03-31T04:50:36.584Z,1.02
2019-03-31T04:53:08.370Z,0.80
2019-03-31T04:55:40.535Z,1.47
2019-03-31T04:58:12.346Z,0.33
2019-03-31T05:00:45.322Z,1.90
2019-03-31T05:03:17.046Z,1.80
2019-03-31T05:05:48.801Z,1.80
2019-03-31T05:08:21.026Z,1.70
2019-03-31T05:10:53.196Z,1.40
2019-03-31T05:13:25.442Z,2.05
2019-03-31T05:15:57.144Z,1.98
2019-03-31T05:18:29.272Z,2.08
2019-03-31T05:21:01.401Z,1.45
2019-03-31T05:23:33.262Z,1.25
2019-03-31T05:26:05.429Z,2.05
2019-03-31T05:28:37.235Z,1.90
2019-03-31T05:31:09.141Z,1.85
2019-03-31T05:33:40.960Z,1.40
2019-03-31T05:36:12.723Z,1.30
2019-03-31T05:38:44.599Z,1.72
2019-03-31T05:41:17.263Z,1.25
2019-03-31T05:43:49.475Z,1.72
2019-03-31T05:46:21.252Z,2.35
2019-03-31T05:48:53.511Z,1.92
2019-03-31T05:51:25.348Z,2.02
2019-03-31T05:53:57.627Z,1.67
2019-03-31T05:56:29.433Z,2.35
2019-03-31T05:59:01.296Z,1.65
2019-03-31T06:01:33.193Z,1.40
2019-03-31T06:04:05.469Z,1.52
2019-03-31T06:06:41.973Z,1.07
2019-03-31T06:09:13.755Z,1.50
2019-03-31T06:11:45.590Z,1.87
2019-03-31T06:14:17.887Z,1.50
2019-03-31T06:16:51.175Z,1.00
2019-03-31T06:19:22.883Z,1.65
2019-03-31T06:21:55.895Z,0.82
2019-03-31T06:24:27.791Z,1.32
2019-03-31T06:26:59.565Z,1.17
2019-03-31T06:29:31.408Z,1.45
2019-03-31T06:32:03.129Z,1.00
2019-03-31T06:34:46.865Z,1.22
2019-03-31T06:37:08.386Z,1.45
2019-03-31T06:39:40.273Z,0.90
2019-03-31T06:42:12.014Z,1.30
2019-03-31T06:44:44.710Z,0.72
2019-03-31T06:47:16.396Z,1.15
2019-03-31T06:49:49.399Z,0.75
2019-03-31T06:52:21.471Z,1.10
2019-03-31T06:54:53.254Z,1.22
2019-03-31T06:57:26.814Z,1.52
2019-03-31T06:59:58.566Z,1.20
2019-03-31T07:02:30.259Z,0.80
2019-03-31T07:05:02.168Z,0.65
2019-03-31T07:07:35.373Z,0.80
2019-03-31T07:10:07.909Z,1.10
2019-03-31T07:12:40.013Z,1.30
2019-03-31T07:15:46.140Z,2.33
2019-03-31T07:18:18.036Z,1.27
2019-03-31T07:20:50.020Z,0.80
2019-03-31T07:23:23.603Z,0.65
2019-03-31T07:25:55.309Z,0.98
2019-03-31T07:28:27.119Z,1.67
2019-03-31T07:30:59.858Z,1.30
2019-03-31T07:33:31.834Z,0.50
2019-03-31T07:36:04.535Z,0.65
2019-03-31T07:38:39.299Z,1.20
2019-03-31T07:41:12.896Z,1.10
2019-03-31T07:43:44.730Z,0.78
2019-03-31T07:46:16.597Z,0.80
2019-03-31T07:48:48.900Z,1.37
2019-03-31T07:51:20.661Z,0.90
2019-03-31T07:53:52.471Z,0.90
2019-03-31T07:56:24.334Z,1.62
2019-03-31T07:58:56.261Z,1.25
2019-03-31T08:01:28.244Z,1.22
2019-03-31T08:03:59.961Z,0.95
2019-03-31T08:06:31.762Z,0.82
2019-03-31T08:09:04.828Z,0.70
2019-03-31T08:11:36.670Z,1.47
2019-03-31T08:14:08.869Z,0.55
2019-03-31T08:16:40.577Z,1.47
2019-03-31T08:19:12.808Z,1.07
2019-03-31T08:21:44.505Z,0.57
2019-03-31T08:24:16.447Z,1.10
2019-03-31T08:26:48.533Z,1.30
2019-03-31T08:29:20.667Z,0.60
2019-03-31T08:31:52.488Z,0.70
2019-03-31T08:34:24.279Z,0.90
2019-03-31T08:36:56.142Z,0.90
2019-03-31T08:39:27.975Z,0.72
2019-03-31T08:42:00.067Z,0.98
2019-03-31T08:44:31.860Z,1.07
2019-03-31T08:47:04.845Z,0.50
2019-03-31T08:49:36.690Z,0.82
2019-03-31T08:52:08.441Z,0.57
2019-03-31T08:54:40.680Z,0.88
2019-03-31T08:57:12.488Z,0.60
2019-03-31T08:59:44.281Z,1.00
2019-03-31T09:02:30.685Z,1.12
2019-03-31T09:05:02.942Z,0.33
2019-03-31T09:07:34.774Z,0.78
2019-03-31T09:10:09.349Z,0.85
2019-03-31T09:12:41.063Z,1.00
2019-03-31T09:15:14.097Z,0.55
2019-03-31T09:17:46.071Z,0.98
2019-03-31T09:20:18.236Z,0.53
2019-03-31T09:22:50.130Z,0.50
2019-03-31T09:25:21.934Z,1.00
2019-03-31T09:27:53.717Z,0.68
2019-03-31T09:30:25.762Z,0.80
2019-03-31T09:32:57.695Z,0.45
2019-03-31T09:35:30.583Z,0.80
2019-03-31T09:38:02.380Z,0.85
2019-03-31T09:40:34.511Z,0.78
2019-03-31T09:43:06.266Z,0.60
2019-03-31T09:45:38.004Z,0.50
2019-03-31T09:48:09.806Z,0.93
2019-03-31T09:50:41.563Z,0.42
2019-03-31T09:53:13.374Z,0.80
2019-03-31T09:55:45.684Z,0.60
2019-03-31T09:58:17.529Z,0.80
2019-03-31T10:00:51.613Z,0.65
2019-03-31T10:03:23.587Z,0.60
2019-03-31T10:06:09.386Z,0.45
2019-03-31T10:08:29.347Z,0.50
2019-03-31T10:11:02.824Z,0.70
2019-03-31T10:13:34.606Z,0.95
2019-03-31T10:16:06.364Z,0.88
2019-03-31T10:18:38.193Z,1.05
2019-03-31T10:21:09.947Z,0.50
2019-03-31T10:23:41.707Z,0.70
2019-03-31T10:26:16.070Z,0.28
2019-03-31T10:28:46.946Z,0.68
2019-03-31T10:31:21.846Z,1.30
2019-03-31T10:33:53.914Z,0.70
2019-03-31T10:36:25.644Z,0.80
2019-03-31T10:38:58.469Z,0.80
2019-03-31T10:41:31.049Z,0.50
2019-03-31T10:44:02.961Z,1.05
2019-03-31T10:46:37.737Z,0.50
2019-03-31T10:49:09.479Z,1.07
2019-03-31T10:51:41.301Z,0.68
2019-03-31T10:54:13.099Z,0.75
2019-03-31T10:56:44.862Z,0.50
2019-03-31T10:59:16.913Z,1.20
2019-03-31T11:01:50.077Z,0.80
2019-03-31T11:04:21.825Z,0.70
2019-03-31T11:06:59.509Z,0.68
2019-03-31T11:09:27.010Z,0.37
2019-03-31T11:11:59.588Z,0.50
2019-03-31T11:14:31.857Z,1.07
2019-03-31T11:17:03.669Z,0.95
2019-03-31T11:19:35.394Z,0.85
2019-03-31T11:22:16.911Z,0.42
2019-03-31T11:24:48.714Z,0.75
2019-03-31T11:27:20.416Z,0.50
2019-03-31T11:29:52.250Z,0.80
2019-03-31T11:32:23.961Z,1.35
2019-03-31T11:34:55.741Z,0.57
2019-03-31T11:37:27.486Z,0.60
2019-03-31T11:39:59.288Z,0.65
2019-03-31T11:42:31.032Z,0.53
2019-03-31T11:45:02.925Z,1.07
2019-03-31T11:47:34.718Z,0.45
2019-03-31T11:50:07.535Z,0.60
2019-03-31T11:52:39.704Z,0.80
2019-03-31T11:55:11.593Z,1.15
2019-03-31T11:57:43.360Z,0.60
2019-03-31T12:00:18.828Z,0.60
2019-03-31T12:02:50.790Z,0.40
2019-03-31T12:05:22.654Z,1.20
2019-03-31T12:07:54.534Z,1.37
2019-03-31T12:10:26.372Z,0.60
2019-03-31T12:12:58.583Z,0.40
2019-03-31T12:15:30.339Z,0.82
2019-03-31T12:18:02.086Z,0.60
2019-03-31T12:20:33.939Z,1.07
2019-03-31T12:23:05.696Z,1.45
2019-03-31T12:25:37.436Z,1.20
2019-03-31T12:28:09.250Z,0.50
2019-03-31T12:30:40.966Z,0.88
2019-03-31T12:33:12.699Z,1.30
2019-03-31T12:35:44.446Z,0.80
2019-03-31T12:38:16.311Z,1.00
2019-03-31T12:40:48.211Z,1.02
2019-03-31T12:43:19.925Z,1.35
2019-03-31T12:45:53.051Z,1.40
2019-03-31T12:48:25.126Z,1.07
2019-03-31T12:50:57.265Z,1.00
2019-03-31T12:53:29.070Z,1.15
2019-03-31T12:56:00.859Z,1.20
2019-03-31T12:58:32.661Z,0.90
2019-03-31T13:01:04.668Z,1.17
2019-03-31T13:03:36.906Z,1.80
2019-03-31T13:06:08.558Z,1.20
2019-03-31T13:08:43.958Z,0.53
2019-03-31T13:11:14.933Z,0.53
2019-03-31T13:13:46.686Z,0.40
2019-03-31T13:16:18.474Z,1.27
2019-03-31T13:18:50.227Z,1.52
2019-03-31T13:21:22.001Z,1.02
2019-03-31T13:23:53.717Z,0.90
2019-03-31T13:26:25.840Z,1.17
2019-03-31T13:28:57.626Z,0.90
2019-03-31T13:31:29.746Z,0.72
2019-03-31T13:34:01.971Z,0.72
2019-03-31T13:36:34.102Z,0.90
2019-03-31T13:39:08.013Z,1.02
2019-03-31T13:41:39.936Z,0.40
2019-03-31T13:44:11.788Z,1.20
2019-03-31T13:46:43.662Z,0.95
2019-03-31T13:49:15.397Z,0.98
2019-03-31T13:51:47.169Z,0.47
2019-03-31T13:54:20.022Z,0.57
2019-03-31T13:56:52.613Z,0.60
2019-03-31T13:59:24.772Z,1.05
2019-03-31T14:02:00.047Z,1.10
2019-03-31T14:04:30.405Z,0.40
2019-03-31T14:07:04.438Z,0.80
2019-03-31T14:09:36.234Z,0.20
2019-03-31T14:12:08.138Z,1.00
2019-03-31T14:14:39.957Z,0.75
2019-03-31T14:17:11.811Z,0.82
2019-03-31T14:19:43.583Z,0.55
2019-03-31T14:22:15.773Z,0.90
2019-03-31T14:24:47.593Z,0.80
2019-03-31T14:27:19.413Z,1.02
2019-03-31T14:29:51.147Z,0.72
2019-03-31T14:32:22.866Z,0.53
2019-03-31T14:34:54.660Z,0.68
2019-03-31T14:37:26.587Z,0.60
2019-03-31T14:39:58.339Z,0.47
2019-03-31T14:42:30.072Z,1.10
2019-03-31T14:45:01.824Z,0.57
2019-03-31T14:47:33.696Z,0.57
2019-03-31T14:50:06.330Z,0.60
2019-03-31T14:52:38.153Z,0.33
2019-03-31T14:55:09.945Z,0.72
2019-03-31T14:57:41.667Z,0.95
2019-03-31T15:00:15.331Z,0.47
2019-03-31T15:02:47.254Z,0.40
2019-03-31T15:05:18.929Z,0.65
2019-03-31T15:07:50.666Z,1.07
2019-03-31T15:10:22.741Z,1.27
2019-03-31T15:12:54.934Z,0.62
2019-03-31T15:15:26.633Z,1.05
2019-03-31T15:17:58.480Z,0.70
2019-03-31T15:20:31.470Z,0.60
2019-03-31T15:23:05.657Z,0.65
2019-03-31T15:25:37.358Z,0.85
2019-03-31T15:28:09.140Z,0.50
2019-03-31T15:30:40.822Z,0.93
2019-03-31T15:33:12.614Z,1.05
2019-03-31T15:35:44.802Z,0.78
2019-03-31T15:38:16.583Z,0.72
2019-03-31T15:40:48.711Z,0.95
2019-03-31T15:43:20.713Z,1.20
2019-03-31T15:45:52.860Z,0.72
2019-03-31T15:48:24.671Z,1.00
2019-03-31T15:50:56.829Z,0.93
2019-03-31T15:53:28.560Z,0.98
2019-03-31T15:56:00.263Z,1.10
2019-03-31T15:58:32.198Z,0.62
2019-03-31T16:01:03.947Z,0.72
2019-03-31T16:03:38.600Z,1.10
2019-03-31T16:06:10.464Z,1.00
2019-03-31T16:08:41.608Z,0.70
2019-03-31T16:11:12.814Z,1.77
2019-03-31T16:13:43.935Z,1.55
2019-03-31T16:16:15.106Z,2.22
2019-03-31T16:18:46.289Z,1.37
2019-03-31T16:21:17.523Z,1.25
2019-03-31T16:23:48.701Z,0.88
2019-03-31T16:26:19.975Z,0.40
2019-03-31T16:28:51.582Z,0.85
2019-03-31T16:31:23.554Z,0.65
2019-03-31T16:33:54.836Z,0.78
2019-03-31T16:36:25.994Z,0.90
2019-03-31T16:38:57.192Z,0.80
2019-03-31T16:41:28.750Z,0.90
2019-03-31T16:44:00.397Z,1.40
2019-03-31T16:46:31.677Z,0.88
2019-03-31T16:49:02.959Z,0.57
2019-03-31T16:51:34.132Z,0.80
2019-03-31T16:54:05.392Z,0.90
2019-03-31T16:56:37.203Z,0.68
2019-03-31T16:59:08.428Z,1.10
2019-03-31T17:01:39.730Z,0.80
2019-03-31T17:04:11.292Z,1.20
2019-03-31T17:06:42.976Z,1.07
2019-03-31T17:09:14.122Z,1.20
2019-03-31T17:11:45.416Z,0.50
2019-03-31T17:14:16.665Z,0.85
2019-03-31T17:16:47.891Z,1.10
2019-03-31T17:19:19.454Z,0.50
2019-03-31T17:21:53.948Z,0.70
2019-03-31T17:24:25.196Z,0.90
2019-03-31T17:26:56.632Z,1.10
2019-03-31T17:29:27.911Z,1.20
2019-03-31T17:31:59.110Z,0.75
2019-03-31T17:34:30.433Z,1.30
2019-03-31T17:37:01.597Z,1.20
2019-03-31T17:39:33.217Z,1.40
2019-03-31T17:42:04.424Z,1.75
2019-03-31T17:44:38.212Z,1.30
2019-03-31T17:47:09.464Z,1.75
2019-03-31T17:49:40.660Z,1.47
2019-03-31T17:52:11.866Z,1.07
2019-03-31T17:54:43.297Z,1.85
2019-03-31T17:57:14.440Z,1.55
2019-03-31T17:59:45.858Z,1.12
2019-03-31T18:02:17.190Z,1.40
2019-03-31T18:04:48.750Z,1.52
2019-03-31T18:07:20.052Z,1.42
2019-03-31T18:09:51.583Z,1.60
2019-03-31T18:12:23.099Z,1.95
2019-03-31T18:14:54.315Z,1.45
2019-03-31T18:17:25.552Z,1.53
2019-03-31T18:19:56.802Z,2.47
2019-03-31T18:22:28.594Z,1.67
2019-03-31T18:25:01.623Z,1.27
2019-03-31T18:27:33.229Z,1.00
2019-03-31T18:30:04.689Z,1.72
2019-03-31T18:32:35.920Z,1.80
2019-03-31T18:35:07.959Z,1.70
2019-03-31T18:37:39.536Z,1.37
2019-03-31T18:40:10.837Z,1.55
2019-03-31T18:42:41.980Z,1.92
2019-03-31T18:45:13.288Z,1.60
2019-03-31T18:47:44.460Z,1.90
2019-03-31T18:50:15.815Z,1.85
2019-03-31T18:52:47.425Z,2.00
2019-03-31T18:55:31.151Z,1.60
2019-03-31T18:58:19.819Z,1.40
2019-03-31T19:01:12.833Z,1.32
2019-03-31T19:04:09.313Z,1.40
2019-03-31T19:06:46.291Z,1.60
2019-03-31T19:09:36.115Z,1.30
2019-03-31T19:12:42.557Z,1.70
2019-03-31T19:15:23.392Z,1.70
2019-03-31T19:18:19.706Z,1.60
2019-03-31T19:21:12.374Z,1.32
2019-03-31T19:24:14.956Z,1.67
2019-03-31T19:27:05.139Z,1.47
2019-03-31T19:29:59.140Z,1.30
2019-03-31T19:32:49.332Z,1.17
2019-03-31T19:35:38.967Z,1.30
2019-03-31T19:38:28.381Z,0.62
2019-03-31T19:41:30.790Z,0.80
2019-03-31T19:44:17.873Z,1.10
2019-03-31T19:47:08.123Z,1.02
2019-03-31T19:49:56.712Z,2.30
2019-03-31T19:52:52.578Z,1.10
2019-03-31T19:55:48.596Z,1.70
2019-03-31T19:58:34.756Z,1.83
2019-03-31T20:01:27.748Z,1.63
2019-03-31T20:04:24.096Z,2.47
2019-03-31T20:07:20.473Z,1.57
2019-03-31T20:10:10.668Z,1.62
2019-03-31T20:13:09.977Z,2.27
2019-03-31T20:15:56.333Z,0.60
2019-03-31T20:18:52.476Z,1.22
2019-03-31T20:21:45.121Z,1.75
2019-03-31T20:24:40.605Z,0.70
2019-03-31T20:27:37.689Z,2.00
2019-03-31T20:30:17.560Z,0.95
2019-03-31T20:33:10.899Z,1.12
2019-03-31T20:36:01.597Z,1.47
2019-03-31T20:38:51.627Z,1.10
2019-03-31T20:41:36.847Z,1.20
2019-03-31T20:44:08.077Z,1.42
2019-03-31T20:46:39.513Z,0.93
2019-03-31T20:49:13.064Z,1.60
2019-03-31T20:51:44.313Z,1.57
2019-03-31T20:54:15.534Z,1.70
2019-03-31T20:56:46.908Z,1.05
2019-03-31T20:59:18.042Z,1.22
2019-03-31T21:01:49.279Z,1.55
2019-03-31T21:04:20.970Z,0.93
2019-03-31T21:06:52.248Z,1.10
2019-03-31T21:09:23.452Z,1.35
2019-03-31T21:11:54.680Z,1.15
2019-03-31T21:14:26.598Z,0.60
2019-03-31T21:16:57.778Z,0.72
2019-03-31T21:19:29.065Z,0.70
2019-03-31T21:22:00.431Z,1.53
2019-03-31T21:24:31.779Z,1.42
2019-03-31T21:27:02.982Z,0.75
2019-03-31T21:29:34.703Z,1.50
2019-03-31T21:32:06.007Z,0.80
2019-03-31T21:34:37.915Z,1.07
2019-03-31T21:37:11.640Z,1.00
2019-03-31T21:39:42.819Z,1.30
2019-03-31T21:42:14.157Z,1.00
2019-03-31T21:44:45.386Z,0.90
2019-03-31T21:47:16.618Z,0.57
2019-03-31T21:49:48.152Z,1.30
2019-03-31T21:52:19.336Z,0.50
2019-03-31T21:54:51.885Z,0.97
2019-03-31T21:57:23.008Z,0.93
2019-03-31T21:59:54.199Z,0.82
2019-03-31T22:02:26.444Z,1.40
2019-03-31T22:04:57.648Z,1.25
2019-03-31T22:07:30.539Z,1.17
2019-03-31T22:10:01.779Z,0.78
2019-03-31T22:12:33.060Z,1.10
2019-03-31T22:15:04.578Z,1.00
2019-03-31T22:17:35.869Z,1.22
2019-03-31T22:20:07.283Z,1.00
2019-03-31T22:22:38.559Z,0.73
2019-03-31T22:25:11.407Z,1.10
2019-03-31T22:27:42.629Z,0.78
2019-03-31T22:30:14.006Z,0.60
2019-03-31T22:32:45.244Z,1.17
2019-03-31T22:35:16.408Z,1.23
2019-03-31T22:37:47.704Z,0.93
2019-03-31T22:40:18.979Z,0.90
2019-03-31T22:42:50.197Z,1.00
2019-03-31T22:45:21.739Z,1.10
2019-03-31T22:48:20.074Z,0.80
2019-03-31T22:50:51.300Z,1.03
2019-03-31T22:53:22.526Z,0.43
2019-03-31T22:55:54.452Z,1.10
2019-03-31T22:58:25.608Z,1.40
2019-03-31T23:00:56.841Z,1.20
2019-03-31T23:03:28.101Z,1.30
2019-03-31T23:05:59.806Z,1.63
2019-03-31T23:08:31.860Z,1.70
2019-03-31T23:11:03.144Z,1.85
2019-03-31T23:13:34.403Z,0.77
2019-03-31T23:16:06.033Z,1.62
2019-03-31T23:18:37.251Z,1.20
2019-03-31T23:21:08.550Z,1.67
2019-03-31T23:23:40.146Z,1.23
2019-03-31T23:26:11.430Z,1.10
2019-03-31T23:28:49.264Z,1.12
2019-03-31T23:31:23.269Z,1.30
2019-03-31T23:33:54.626Z,1.52
2019-03-31T23:36:26.512Z,1.10
2019-03-31T23:38:59.215Z,1.50
2019-03-31T23:41:30.698Z,1.77
2019-03-31T23:44:01.920Z,1.30
2019-03-31T23:46:35.864Z,1.20
2019-03-31T23:49:06.356Z,0.70
2019-03-31T23:51:38.929Z,1.40
2019-03-31T23:54:10.146Z,1.00
2019-03-31T23:56:41.698Z,1.07
2019-03-31T23:59:13.456Z,0.98
